Time;durP1;ratioP1;P1;durP2;ratioP2;P2;SDS_P1;SDS_P2;PMS_P1;PMS_P2;Temp;Humidity;BMP_temperature;BMP_pressure;BME280_temperature;BME280_humidity;BME280_pressure;Samples;Min_cycle;Max_cycle;Signal;HPM_P1;HPM_P2
2022/09/19 00:01:36;;;;;;;16.70;2.03;;;11.50;99.90;;;;;;5030939;28;20120;-74
2022/09/19 00:04:30;;;;;;;13.52;2.13;;;11.50;99.90;;;;;;5030689;28;20038;-82
2022/09/19 00:06:56;;;;;;;17.40;1.98;;;11.50;99.90;;;;;;5021715;28;20140;-75
2022/09/19 00:09:24;;;;;;;13.65;2.17;;;11.50;99.90;;;;;;5030538;28;20116;-70
2022/09/19 00:11:51;;;;;;;20.65;2.75;;;11.50;99.90;;;;;;5030195;28;20081;-79
2022/09/19 00:14:20;;;;;;;19.58;2.30;;;11.50;99.90;;;;;;5030374;28;20038;-74
2022/09/19 00:16:46;;;;;;;18.90;2.00;;;11.60;99.90;;;;;;5030060;28;20567;-73
2022/09/19 00:19:16;;;;;;;15.20;2.13;;;11.60;99.90;;;;;;5030519;28;20045;-73
2022/09/19 00:21:43;;;;;;;19.95;2.67;;;11.60;99.90;;;;;;5030513;28;20048;-79
2022/09/19 00:26:56;;;;;;;15.13;1.95;;;11.60;99.90;;;;;;5030224;28;20045;-73
2022/09/19 00:29:23;;;;;;;24.35;3.47;;;11.60;99.90;;;;;;5030417;28;20060;-73
2022/09/19 00:31:51;;;;;;;20.48;2.40;;;11.70;99.90;;;;;;5030501;28;20069;-75
2022/09/19 00:34:17;;;;;;;14.75;2.22;;;11.70;99.90;;;;;;5030382;28;20523;-74
2022/09/19 00:36:44;;;;;;;18.52;2.10;;;11.70;99.90;;;;;;5030344;28;20037;-72
2022/09/19 00:39:12;;;;;;;13.73;2.15;;;11.80;99.90;;;;;;5029842;28;20374;-72
2022/09/19 00:41:37;;;;;;;13.05;2.30;;;11.70;99.90;;;;;;5030127;28;20408;-71
2022/09/19 00:44:25;;;;;;;14.90;1.83;;;11.70;99.90;;;;;;5029905;28;20053;-79
2022/09/19 00:47:05;;;;;;;22.63;2.30;;;11.70;99.90;;;;;;5030178;28;20750;-74
2022/09/19 00:49:37;;;;;;;13.80;1.65;;;11.80;99.90;;;;;;5024259;28;20041;-77
2022/09/19 00:52:07;;;;;;;19.58;1.83;;;11.80;99.90;;;;;;5029899;28;20439;-77
2022/09/19 00:54:45;;;;;;;12.05;2.53;;;11.70;99.90;;;;;;5029717;28;20073;-81
2022/09/19 00:57:13;;;;;;;19.80;2.22;;;11.80;99.90;;;;;;5029534;28;20059;-74
2022/09/19 00:59:43;;;;;;;16.20;2.15;;;11.80;99.90;;;;;;5029843;28;20421;-72
2022/09/19 01:02:09;;;;;;;15.88;1.83;;;11.80;99.90;;;;;;5029465;28;20041;-84
2022/09/19 01:04:36;;;;;;;24.15;3.00;;;11.80;99.90;;;;;;5029831;28;20080;-76
2022/09/19 01:07:14;;;;;;;15.63;1.92;;;11.80;99.90;;;;;;5029861;28;20392;-73
2022/09/19 01:09:51;;;;;;;16.45;1.80;;;11.80;99.90;;;;;;5023807;28;20109;-73
2022/09/19 01:12:37;;;;;;;18.50;2.00;;;11.80;99.90;;;;;;5029495;28;20052;-74
2022/09/19 01:15:14;;;;;;;19.60;2.28;;;11.90;99.90;;;;;;5029788;28;20056;-74
2022/09/19 01:18:00;;;;;;;15.73;2.05;;;11.90;99.90;;;;;;5029968;28;20041;-76
2022/09/19 01:21:37;;;;;;;25.45;2.30;;;11.90;99.90;;;;;;5029280;28;20058;-79
2022/09/19 01:24:27;;;;;;;23.60;2.50;;;11.90;99.90;;;;;;5023867;28;20060;-74
2022/09/19 01:27:27;;;;;;;15.52;2.15;;;11.90;99.90;;;;;;4995827;28;20558;-80
2022/09/19 01:30:00;;;;;;;13.23;1.83;;;11.90;99.90;;;;;;4995797;28;20054;-72
2022/09/19 01:32:33;;;;;;;17.00;1.80;;;11.90;99.90;;;;;;4995745;28;20053;-79
2022/09/19 01:35:03;;;;;;;18.33;2.03;;;11.90;99.90;;;;;;4995728;28;20529;-72
2022/09/19 01:37:35;;;;;;;15.88;1.75;;;11.90;99.90;;;;;;5004844;28;20524;-85
2022/09/19 01:40:04;;;;;;;15.98;1.98;;;11.80;99.90;;;;;;4999162;28;20078;-77
2022/09/19 01:42:30;;;;;;;14.35;2.00;;;11.80;99.90;;;;;;4989394;28;20486;-79
2022/09/19 01:44:55;;;;;;;13.20;1.88;;;11.80;99.90;;;;;;4994951;28;20190;-81
2022/09/19 01:47:52;;;;;;;20.95;2.22;;;11.90;99.90;;;;;;4979470;28;20190;-71
2022/09/19 01:50:45;;;;;;;20.70;2.88;;;11.80;99.90;;;;;;4998632;28;20107;-80
2022/09/19 01:53:29;;;;;;;21.30;2.65;;;11.90;99.90;;;;;;4974344;28;20553;-83
2022/09/19 01:56:11;;;;;;;21.17;3.08;;;11.80;99.90;;;;;;4998771;28;20085;-72
2022/09/19 01:58:54;;;;;;;20.95;3.17;;;11.80;99.90;;;;;;4997627;28;20052;-75
2022/09/19 02:01:28;;;;;;;18.33;2.20;;;11.90;99.90;;;;;;4991506;28;20193;-79
2022/09/19 02:04:22;;;;;;;20.95;2.20;;;11.80;99.90;;;;;;5023930;28;20061;-73
2022/09/19 02:06:49;;;;;;;17.35;2.38;;;11.80;99.90;;;;;;5033293;28;20419;-80
2022/09/19 02:09:28;;;;;;;18.42;2.65;;;11.90;99.90;;;;;;5035919;28;20110;-77
2022/09/19 02:11:58;;;;;;;18.67;2.20;;;11.80;99.90;;;;;;5028491;28;20414;-76
2022/09/19 02:14:27;;;;;;;16.02;2.15;;;11.90;99.90;;;;;;5026829;28;20099;-81
2022/09/19 02:17:26;;;;;;;14.77;2.30;;;11.80;99.90;;;;;;5035261;28;20048;-82
2022/09/19 02:19:58;;;;;;;23.40;2.45;;;11.80;99.90;;;;;;5022631;28;20061;-77
2022/09/19 02:22:30;;;;;;;17.55;2.35;;;11.80;99.90;;;;;;5039048;28;20464;-70
2022/09/19 02:25:00;;;;;;;13.52;1.83;;;11.80;99.90;;;;;;5029108;28;20059;-82
2022/09/19 02:27:35;;;;;;;13.20;2.17;;;11.80;99.90;;;;;;5028626;28;20417;-81
2022/09/19 02:30:08;;;;;;;14.00;1.83;;;11.90;99.90;;;;;;5026876;28;20134;-75
2022/09/19 02:32:35;;;;;;;12.43;1.80;;;11.80;99.90;;;;;;5028322;28;20042;-75
2022/09/19 02:35:02;;;;;;;13.63;1.42;;;11.80;99.90;;;;;;5027653;28;20049;-73
2022/09/19 02:37:35;;;;;;;14.10;1.50;;;11.80;99.90;;;;;;5028607;28;20057;-79
2022/09/19 02:40:22;;;;;;;11.80;1.45;;;11.80;99.90;;;;;;5032052;28;20125;-72
2022/09/19 02:43:03;;;;;;;11.63;1.45;;;11.70;99.90;;;;;;5041745;28;20068;-75
2022/09/19 02:45:37;;;;;;;9.73;1.35;;;11.70;99.90;;;;;;5033038;28;20389;-82
2022/09/19 02:48:19;;;;;;;10.55;1.73;;;11.70;99.90;;;;;;5032743;28;20053;-77
2022/09/19 02:50:59;;;;;;;16.10;1.63;;;11.70;99.90;;;;;;5032522;28;20543;-76
2022/09/19 02:53:31;;;;;;;15.32;2.00;;;11.60;99.90;;;;;;5032130;28;20052;-73
2022/09/19 02:56:01;;;;;;;11.15;1.45;;;11.60;99.90;;;;;;5032288;28;20049;-85
2022/09/19 02:58:32;;;;;;;16.35;2.40;;;11.60;99.90;;;;;;5031698;28;20041;-82
2022/09/19 03:01:05;;;;;;;13.82;1.65;;;11.60;99.90;;;;;;5032196;28;20388;-74
2022/09/19 03:06:37;;;;;;;21.05;2.20;;;11.60;99.90;;;;;;5031594;28;20045;-77
2022/09/19 03:09:06;;;;;;;14.82;2.20;;;11.60;99.90;;;;;;5032388;28;20049;-75
2022/09/19 03:11:34;;;;;;;18.17;2.67;;;11.60;99.90;;;;;;5032851;28;20068;-73
2022/09/19 03:14:00;;;;;;;19.17;2.92;;;11.70;99.90;;;;;;5032408;28;20077;-81
2022/09/19 03:16:38;;;;;;;16.58;2.35;;;11.70;99.90;;;;;;5032713;28;20075;-78
2022/09/19 03:19:06;;;;;;;19.33;2.10;;;11.70;99.90;;;;;;5032180;28;20046;-82
2022/09/19 03:21:32;;;;;;;15.32;2.03;;;11.70;99.90;;;;;;5045223;28;20070;-73
2022/09/19 03:23:58;;;;;;;16.95;2.38;;;11.60;99.90;;;;;;5051970;28;20492;-73
2022/09/19 03:26:34;;;;;;;13.18;1.70;;;11.70;99.90;;;;;;5052301;28;20052;-82
2022/09/19 03:29:02;;;;;;;12.93;1.98;;;11.60;99.90;;;;;;5051840;28;20053;-82
2022/09/19 03:31:28;;;;;;;12.43;2.45;;;11.60;99.90;;;;;;5052188;28;20395;-80
2022/09/19 03:33:57;;;;;;;14.52;2.20;;;11.60;99.90;;;;;;5051712;28;20086;-70
2022/09/19 03:36:25;;;;;;;17.65;2.10;;;11.60;99.90;;;;;;5040906;28;20099;-82
2022/09/19 03:38:50;;;;;;;13.30;1.80;;;11.60;99.90;;;;;;5032080;28;20049;-81
2022/09/19 03:41:19;;;;;;;22.48;1.92;;;11.60;99.90;;;;;;5032296;28;20036;-81
2022/09/19 03:43:45;;;;;;;18.45;1.90;;;11.70;99.90;;;;;;5032043;28;20489;-79
2022/09/19 03:46:12;;;;;;;21.73;2.67;;;11.80;99.90;;;;;;5032030;28;20132;-76
2022/09/19 03:48:39;;;;;;;20.58;2.75;;;11.70;99.90;;;;;;5029087;28;20049;-78
2022/09/19 03:51:06;;;;;;;13.65;1.90;;;11.70;99.90;;;;;;5031714;28;20049;-79
2022/09/19 03:53:33;;;;;;;15.35;2.40;;;11.70;99.90;;;;;;5033210;28;20037;-72
2022/09/19 03:56:00;;;;;;;18.73;2.42;;;11.90;99.90;;;;;;5030124;28;20053;-73
2022/09/19 03:58:25;;;;;;;15.38;2.05;;;11.70;99.90;;;;;;5031696;28;20064;-80
2022/09/19 04:00:51;;;;;;;21.15;2.30;;;11.70;99.90;;;;;;5030491;28;20049;-83
2022/09/19 04:03:18;;;;;;;13.60;1.85;;;11.70;99.90;;;;;;5031450;28;20183;-83
2022/09/19 04:05:44;;;;;;;23.13;2.30;;;11.70;99.90;;;;;;5030934;28;20049;-85
2022/09/19 04:08:11;;;;;;;11.70;2.10;;;11.70;99.90;;;;;;5039601;28;20139;-77
2022/09/19 04:10:37;;;;;;;24.08;2.50;;;11.60;99.90;;;;;;5051050;28;20045;-79
2022/09/19 04:13:03;;;;;;;17.60;2.05;;;11.70;99.90;;;;;;5051392;28;20697;-76
2022/09/19 04:15:29;;;;;;;12.93;2.20;;;11.70;99.90;;;;;;5051174;28;20045;-80
2022/09/19 04:17:54;;;;;;;18.70;2.15;;;11.70;99.90;;;;;;5049760;28;20048;-76
2022/09/19 04:20:21;;;;;;;15.00;2.05;;;12.00;99.90;;;;;;5050654;28;20240;-73
2022/09/19 04:22:47;;;;;;;19.08;2.90;;;11.80;99.90;;;;;;5049304;28;20071;-73
2022/09/19 04:25:13;;;;;;;13.73;2.05;;;11.90;99.90;;;;;;5050847;28;20045;-77
2022/09/19 04:27:39;;;;;;;19.63;2.75;;;11.80;99.90;;;;;;5050694;28;20053;-80
2022/09/19 04:30:06;;;;;;;22.42;3.15;;;11.80;99.90;;;;;;5039745;28;20515;-73
2022/09/19 04:32:31;;;;;;;17.23;2.53;;;11.80;99.90;;;;;;5030907;28;20053;-74
2022/09/19 04:34:59;;;;;;;23.58;2.58;;;11.80;99.90;;;;;;5045008;28;20049;-80
2022/09/19 04:37:26;;;;;;;21.00;2.95;;;11.90;99.90;;;;;;5033727;28;20048;-74
2022/09/19 04:39:52;;;;;;;19.88;2.80;;;11.90;99.90;;;;;;5029387;28;20057;-74
2022/09/19 04:42:18;;;;;;;19.42;2.95;;;11.90;99.90;;;;;;5030588;28;20046;-81
2022/09/19 04:44:44;;;;;;;18.13;2.30;;;11.90;99.90;;;;;;5029225;28;20045;-71
2022/09/19 04:47:10;;;;;;;12.15;2.20;;;11.90;99.90;;;;;;5030581;28;20079;-81
2022/09/19 04:49:39;;;;;;;14.23;2.30;;;11.90;99.90;;;;;;5030557;28;20730;-79
2022/09/19 04:52:06;;;;;;;11.15;1.88;;;11.90;99.90;;;;;;5030003;28;20091;-81
2022/09/19 04:54:37;;;;;;;21.58;2.33;;;11.90;99.90;;;;;;5043110;28;20044;-75
2022/09/19 04:57:05;;;;;;;14.80;2.00;;;12.00;99.90;;;;;;5050430;28;20040;-73
2022/09/19 04:59:33;;;;;;;20.52;2.45;;;11.90;99.90;;;;;;5050176;28;20057;-78
2022/09/19 05:01:59;;;;;;;20.38;2.00;;;11.90;99.90;;;;;;5046321;28;20041;-80
2022/09/19 05:04:25;;;;;;;14.43;2.38;;;11.80;99.90;;;;;;5030479;28;20049;-81
2022/09/19 05:06:54;;;;;;;13.75;1.85;;;11.80;99.90;;;;;;5035038;28;20052;-75
2022/09/19 05:09:22;;;;;;;17.58;2.15;;;11.80;99.90;;;;;;5009218;28;20129;-86
2022/09/19 05:11:48;;;;;;;18.38;2.42;;;11.70;99.90;;;;;;5010556;28;20081;-72
2022/09/19 05:14:14;;;;;;;15.68;2.03;;;11.70;99.90;;;;;;5023519;28;20050;-81
2022/09/19 05:16:40;;;;;;;15.18;2.38;;;11.70;99.90;;;;;;5028849;28;20048;-83
2022/09/19 05:19:07;;;;;;;17.33;2.80;;;11.70;99.90;;;;;;5030104;28;20081;-77
2022/09/19 05:21:33;;;;;;;13.98;1.80;;;11.70;99.90;;;;;;5029987;28;20041;-73
2022/09/19 05:24:00;;;;;;;20.02;2.20;;;11.60;99.90;;;;;;5030305;28;20049;-82
2022/09/19 05:26:26;;;;;;;18.60;2.30;;;11.70;99.90;;;;;;5030453;28;20053;-76
2022/09/19 05:28:52;;;;;;;9.82;1.50;;;11.70;99.90;;;;;;5032902;28;20053;-70
2022/09/19 05:31:19;;;;;;;17.35;1.85;;;11.60;99.90;;;;;;5029951;28;20041;-84
2022/09/19 05:33:46;;;;;;;18.33;2.40;;;11.80;99.90;;;;;;5047894;28;20041;-81
2022/09/19 05:36:13;;;;;;;15.20;2.13;;;11.60;99.90;;;;;;5049291;28;20049;-75
2022/09/19 05:38:39;;;;;;;16.45;2.10;;;11.60;99.90;;;;;;5022475;28;20084;-78
2022/09/19 05:41:05;;;;;;;16.58;1.80;;;11.60;99.90;;;;;;5030004;28;20048;-82
2022/09/19 05:43:32;;;;;;;21.90;2.25;;;11.60;99.90;;;;;;5028593;28;20067;-73
2022/09/19 05:45:59;;;;;;;16.55;2.65;;;11.60;99.90;;;;;;5044072;28;20045;-72
2022/09/19 05:48:25;;;;;;;10.32;1.95;;;11.60;99.90;;;;;;5049559;28;20049;-74
2022/09/19 05:50:52;;;;;;;16.73;2.42;;;11.70;99.90;;;;;;5049620;28;20128;-77
2022/09/19 05:56:04;;;;;;;;;;;11.70;99.90;;;;;;5049913;28;20056;-82
2022/09/19 05:58:31;;;;;;;17.42;2.13;;;11.70;99.90;;;;;;5049631;28;19944;-73
2022/09/19 06:00:57;;;;;;;19.48;2.30;;;11.70;99.90;;;;;;5049309;28;20048;-76
2022/09/19 06:03:23;;;;;;;15.15;1.88;;;11.70;99.90;;;;;;5049620;28;20085;-82
2022/09/19 06:05:54;;;;;;;14.27;2.05;;;11.70;99.90;;;;;;5049798;28;20458;-73
2022/09/19 06:08:23;;;;;;;18.25;2.13;;;11.70;99.90;;;;;;5040645;28;20041;-72
2022/09/19 06:10:50;;;;;;;12.20;1.85;;;11.70;99.90;;;;;;5049418;28;20484;-72
2022/09/19 06:13:18;;;;;;;13.13;1.60;;;11.60;99.90;;;;;;5036106;28;20550;-82
2022/09/19 06:15:45;;;;;;;11.43;1.50;;;11.70;99.90;;;;;;5031955;28;20053;-72
2022/09/19 06:18:11;;;;;;;14.50;2.17;;;11.60;99.90;;;;;;5052909;28;20045;-74
2022/09/19 06:20:40;;;;;;;11.50;1.70;;;11.70;99.90;;;;;;5053663;28;20052;-71
2022/09/19 06:23:08;;;;;;;18.85;2.75;;;11.70;99.90;;;;;;5051892;28;20057;-71
2022/09/19 06:25:35;;;;;;;10.93;1.73;;;11.70;99.90;;;;;;5052943;28;20049;-76
2022/09/19 06:28:06;;;;;;;17.13;1.77;;;11.70;99.90;;;;;;5037211;28;20149;-72
2022/09/19 06:30:33;;;;;;;10.15;1.90;;;11.80;99.90;;;;;;5036266;28;20057;-71
2022/09/19 06:32:59;;;;;;;13.23;1.92;;;11.70;99.90;;;;;;5053757;28;20041;-71
2022/09/19 06:35:28;;;;;;;13.30;1.73;;;11.80;99.90;;;;;;5053752;28;20124;-71
2022/09/19 06:38:00;;;;;;;16.00;2.05;;;11.80;99.90;;;;;;5053707;28;20049;-72
2022/09/19 06:40:26;;;;;;;15.57;2.05;;;11.80;99.90;;;;;;5053253;28;20085;-71
2022/09/19 06:43:01;;;;;;;17.45;2.03;;;11.90;99.90;;;;;;5053374;28;20036;-71
2022/09/19 06:45:28;;;;;;;;;;;11.90;99.90;;;;;;5043641;28;20041;-71
2022/09/19 06:47:58;;;;;;;18.08;2.00;;;11.90;99.90;;;;;;5033668;28;19928;-72
2022/09/19 06:50:24;;;;;;;13.10;2.05;;;12.00;99.90;;;;;;5033428;28;20630;-72
2022/09/19 06:52:50;;;;;;;14.32;2.08;;;12.00;99.90;;;;;;5033457;28;20152;-71
2022/09/19 06:55:15;;;;;;;17.23;2.03;;;12.00;99.90;;;;;;5033243;28;20131;-72
2022/09/19 06:57:41;;;;;;;15.43;2.35;;;12.10;99.90;;;;;;5033084;28;20052;-71
2022/09/19 07:00:07;;;;;;;16.50;2.30;;;12.10;99.90;;;;;;5033198;28;20052;-76
2022/09/19 07:02:33;;;;;;;12.55;2.30;;;12.10;99.90;;;;;;5033429;28;20428;-74
2022/09/19 07:04:59;;;;;;;10.85;1.67;;;12.10;99.90;;;;;;5033016;28;20056;-72
2022/09/19 07:07:24;;;;;;;11.43;1.33;;;12.10;99.90;;;;;;5031837;28;20045;-73
2022/09/19 07:09:50;;;;;;;11.13;1.65;;;12.00;99.90;;;;;;5033014;28;20102;-73
2022/09/19 07:12:15;;;;;;;14.82;2.08;;;12.00;99.90;;;;;;5032560;28;20056;-73
2022/09/19 07:14:41;;;;;;;15.88;2.25;;;12.00;99.90;;;;;;5036286;28;20045;-76
2022/09/19 07:17:07;;;;;;;15.75;2.13;;;12.00;99.90;;;;;;5018092;28;20049;-72
2022/09/19 07:19:32;;;;;;;20.08;3.20;;;12.00;99.90;;;;;;5013532;28;20397;-72
2022/09/19 07:21:58;;;;;;;17.80;2.75;;;12.10;99.90;;;;;;5033111;28;20042;-75
2022/09/19 07:24:24;;;;;;;12.73;2.30;;;12.10;99.90;;;;;;5032982;28;20103;-73
2022/09/19 07:26:49;;;;;;;24.95;2.80;;;12.20;99.90;;;;;;5032493;28;20065;-74
2022/09/19 07:29:15;;;;;;;20.75;2.42;;;12.30;99.90;;;;;;5032586;28;20058;-73
2022/09/19 07:31:41;;;;;;;23.25;2.50;;;12.50;99.90;;;;;;5032777;28;20088;-73
2022/09/19 07:34:06;;;;;;;24.80;2.63;;;12.40;99.90;;;;;;5032095;28;20053;-72
2022/09/19 07:36:32;;;;;;;20.63;2.88;;;12.50;99.90;;;;;;5031225;28;20076;-73
2022/09/19 07:38:58;;;;;;;21.50;2.70;;;12.60;99.90;;;;;;5031287;28;20046;-72
2022/09/19 07:41:24;;;;;;;17.92;2.40;;;12.70;99.90;;;;;;5032570;28;20045;-72
2022/09/19 07:43:49;;;;;;;17.40;2.53;;;12.80;99.90;;;;;;5032172;28;20041;-73
2022/09/19 07:46:17;;;;;;;24.20;2.65;;;12.90;99.90;;;;;;5032519;28;20208;-74
2022/09/19 07:48:43;;;;;;;23.25;3.03;;;13.00;99.90;;;;;;5032890;28;20089;-72
2022/09/19 07:51:09;;;;;;;21.70;2.63;;;13.10;99.90;;;;;;5033895;28;20059;-73
2022/09/19 07:53:35;;;;;;;21.17;2.35;;;13.10;99.90;;;;;;5032150;28;20370;-73
2022/09/19 07:56:01;;;;;;;13.57;1.80;;;13.20;99.90;;;;;;5033573;28;20053;-71
2022/09/19 07:58:27;;;;;;;20.17;2.22;;;13.30;99.90;;;;;;5030885;28;20485;-73
2022/09/19 08:00:53;;;;;;;21.40;2.88;;;13.30;99.90;;;;;;5032913;28;20559;-76
2022/09/19 08:03:20;;;;;;;14.23;2.00;;;13.50;99.90;;;;;;5031734;28;20033;-71
2022/09/19 08:05:51;;;;;;;12.23;1.75;;;13.60;99.90;;;;;;5031613;28;20099;-72
2022/09/19 08:08:19;;;;;;;25.40;2.40;;;13.50;99.90;;;;;;5031565;28;20041;-72
2022/09/19 08:10:45;;;;;;;22.63;2.60;;;13.60;99.90;;;;;;5029462;28;20057;-71
2022/09/19 08:13:13;;;;;;;12.80;2.17;;;13.60;99.90;;;;;;5031322;28;20048;-72
2022/09/19 08:15:39;;;;;;;14.05;2.03;;;13.80;99.90;;;;;;5031012;28;20492;-71
2022/09/19 08:18:13;;;;;;;14.70;2.33;;;13.90;99.90;;;;;;5030260;28;20049;-73
2022/09/19 08:20:40;;;;;;;15.68;2.28;;;13.90;99.90;;;;;;5031993;28;20057;-71
2022/09/19 08:23:11;;;;;;;15.30;2.22;;;13.90;99.90;;;;;;5031555;28;20052;-72
2022/09/19 08:25:39;;;;;;;21.60;2.40;;;14.20;99.90;;;;;;5032843;28;20783;-73
2022/09/19 08:28:05;;;;;;;13.18;2.17;;;14.00;99.90;;;;;;5031498;28;20060;-72
2022/09/19 08:30:33;;;;;;;11.40;2.35;;;14.00;99.90;;;;;;5031115;28;20064;-74
2022/09/19 08:33:01;;;;;;;15.85;2.38;;;14.10;99.90;;;;;;5031454;28;20038;-78
2022/09/19 08:35:29;;;;;;;13.38;2.55;;;14.20;99.90;;;;;;5030852;28;20077;-82
2022/09/19 08:38:00;;;;;;;18.65;2.65;;;14.50;99.90;;;;;;5030225;28;20119;-78
2022/09/19 08:40:43;;;;;;;15.52;2.20;;;14.70;99.90;;;;;;5049287;28;20048;-73
2022/09/19 08:43:43;;;;;;;11.13;2.30;;;14.90;99.90;;;;;;5051139;28;20190;-72
2022/09/19 08:46:28;;;;;;;11.73;1.90;;;15.00;99.90;;;;;;5051033;28;20107;-74
2022/09/19 08:48:57;;;;;;;18.85;2.13;;;15.40;99.90;;;;;;5039216;28;20089;-72
2022/09/19 08:51:34;;;;;;;14.07;2.15;;;15.70;99.90;;;;;;5030921;28;20084;-72
2022/09/19 08:54:26;;;;;;;13.82;1.83;;;15.90;99.90;;;;;;5031299;28;20089;-73
2022/09/19 08:56:52;;;;;;;14.02;2.60;;;16.30;99.90;;;;;;5031105;28;20140;-74
2022/09/19 08:59:23;;;;;;;25.75;3.35;;;16.30;99.90;;;;;;5049498;28;20183;-74
2022/09/19 09:01:53;;;;;;;16.45;2.95;;;16.00;99.90;;;;;;5050431;28;20067;-73
2022/09/19 09:04:30;;;;;;;19.67;2.45;;;15.80;99.90;;;;;;5048900;28;20063;-74
2022/09/19 09:07:20;;;;;;;14.20;2.40;;;15.80;99.90;;;;;;5050968;28;20044;-77
2022/09/19 09:10:01;;;;;;;20.35;2.30;;;15.70;99.90;;;;;;5049498;28;20064;-74
2022/09/19 09:12:32;;;;;;;20.13;2.78;;;15.50;99.90;;;;;;5049336;28;20052;-74
2022/09/19 09:15:33;;;;;;;21.38;2.08;;;15.40;99.90;;;;;;5031107;28;20045;-74
2022/09/19 09:18:31;;;;;;;17.77;2.38;;;15.50;99.90;;;;;;5035389;28;20040;-73
2022/09/19 09:21:12;;;;;;;17.15;2.38;;;15.50;99.90;;;;;;5048104;28;20045;-74
2022/09/19 09:23:45;;;;;;;15.68;2.63;;;15.90;99.90;;;;;;5031555;28;20124;-74
2022/09/19 09:26:19;;;;;;;13.38;2.25;;;16.20;99.90;;;;;;5027889;28;20105;-73
2022/09/19 09:28:49;;;;;;;16.88;2.40;;;16.30;99.90;;;;;;5008362;28;20104;-74
2022/09/19 09:32:01;;;;;;;17.52;2.10;;;16.40;99.90;;;;;;5031932;28;20056;-73
2022/09/19 09:34:32;;;;;;;13.52;2.28;;;16.30;99.90;;;;;;5047888;28;20184;-76
2022/09/19 09:37:21;;;;;;;16.80;2.20;;;16.50;99.90;;;;;;5026291;28;20132;-76
2022/09/19 09:40:00;;;;;;;10.90;1.70;;;16.60;99.90;;;;;;5028394;28;20064;-74
2022/09/19 09:43:02;;;;;;;16.05;2.53;;;16.70;99.90;;;;;;5041479;28;20052;-74
2022/09/19 09:45:49;;;;;;;12.90;1.65;;;17.00;99.90;;;;;;4976772;28;20069;-74
2022/09/19 09:48:31;;;;;;;14.18;1.95;;;17.30;99.90;;;;;;4992097;28;20093;-87
2022/09/19 09:51:35;;;;;;;13.25;2.47;;;17.50;99.90;;;;;;4993199;28;20470;-87
2022/09/19 09:57:31;;;;;;;14.38;1.98;;;17.20;99.90;;;;;;4993021;28;20050;-81
2022/09/19 10:03:43;;;;;;;9.82;1.00;;;16.90;99.90;;;;;;4992627;28;20059;-77
2022/09/19 10:06:16;;;;;;;5.22;0.90;;;17.20;99.90;;;;;;4992767;28;20049;-76
2022/09/19 10:08:58;;;;;;;5.53;1.05;;;17.70;99.90;;;;;;4976557;28;20065;-80
2022/09/19 10:11:44;;;;;;;10.10;1.08;;;17.60;99.90;;;;;;4992932;28;20043;-75
2022/09/19 10:14:29;;;;;;;9.85;1.13;;;17.50;99.90;;;;;;4992517;28;20061;-75
2022/09/19 10:17:01;;;;;;;9.80;1.48;;;17.50;99.90;;;;;;4992396;28;20054;-74
2022/09/19 10:19:41;;;;;;;8.52;1.40;;;17.50;99.90;;;;;;4991945;28;20108;-80
2022/09/19 10:22:15;;;;;;;11.05;1.50;;;17.30;99.90;;;;;;5002007;28;20155;-79
2022/09/19 10:24:58;;;;;;;11.57;1.65;;;17.00;99.90;;;;;;5014240;28;20781;-74
2022/09/19 10:27:41;;;;;;;11.45;1.85;;;17.00;99.90;;;;;;5014202;28;20072;-90
2022/09/19 10:30:20;;;;;;;14.32;1.90;;;17.20;99.90;;;;;;5013966;28;20049;-78
2022/09/19 10:32:47;;;;;;;10.48;1.95;;;17.50;99.90;;;;;;5014079;28;20046;-78
2022/09/19 10:35:33;;;;;;;13.50;2.28;;;17.60;99.90;;;;;;5013842;28;20042;-75
2022/09/19 10:38:05;;;;;;;15.98;1.75;;;17.30;99.90;;;;;;5014001;28;20413;-75
2022/09/19 10:40:32;;;;;;;13.55;2.28;;;17.20;99.90;;;;;;5013945;28;20432;-80
2022/09/19 10:43:01;;;;;;;13.20;2.60;;;16.90;99.90;;;;;;5013796;28;20085;-75
2022/09/19 10:45:33;;;;;;;14.15;2.28;;;17.10;99.90;;;;;;5012615;28;20080;-80
2022/09/19 10:48:10;;;;;;;13.05;2.35;;;17.20;99.90;;;;;;5013830;28;20046;-74
2022/09/19 10:50:43;;;;;;;12.43;2.80;;;17.50;99.90;;;;;;5013421;28;20046;-74
2022/09/19 10:53:22;;;;;;;20.92;2.88;;;17.80;99.90;;;;;;5013598;28;20085;-77
2022/09/19 10:55:48;;;;;;;15.80;1.83;;;18.20;99.90;;;;;;5013576;28;20099;-75
2022/09/19 10:58:18;;;;;;;19.00;3.00;;;18.50;99.90;;;;;;5011700;28;20069;-83
2022/09/19 11:01:02;;;;;;;21.02;2.67;;;18.60;99.90;;;;;;5013769;28;20050;-84
2022/09/19 11:03:39;;;;;;;19.58;2.63;;;18.10;99.90;;;;;;5013392;28;20128;-75
2022/09/19 11:06:07;;;;;;;15.63;2.40;;;17.90;99.90;;;;;;5012981;28;20120;-77
2022/09/19 11:08:44;;;;;;;12.07;1.90;;;17.50;99.90;;;;;;5013341;28;20564;-74
2022/09/19 11:11:32;;;;;;;11.88;2.10;;;17.30;99.90;;;;;;5013406;28;20046;-74
2022/09/19 11:14:12;;;;;;;15.30;3.08;;;17.10;99.90;;;;;;5013266;28;20046;-76
2022/09/19 11:17:03;;;;;;;17.52;2.47;;;16.90;99.90;;;;;;5013457;28;20050;-74
2022/09/19 11:19:55;;;;;;;17.83;2.92;;;16.90;99.90;;;;;;5013302;28;20405;-74
2022/09/19 11:23:07;;;;;;;17.98;2.67;;;17.20;99.90;;;;;;5012854;28;20088;-82
2022/09/19 11:25:58;;;;;;;28.30;3.20;;;17.70;99.90;;;;;;4990735;28;20083;-75
2022/09/19 11:28:38;;;;;;;18.58;2.83;;;17.90;99.90;;;;;;4990976;28;20058;-75
2022/09/19 11:31:34;;;;;;;14.82;2.88;;;18.00;99.90;;;;;;4990995;28;20054;-76
2022/09/19 11:34:22;;;;;;;18.27;2.13;;;18.20;99.90;;;;;;4990877;28;20136;-77
2022/09/19 11:37:00;;;;;;;14.25;1.63;;;18.30;99.90;;;;;;4990659;28;20058;-84
2022/09/19 11:40:03;;;;;;;7.38;1.45;;;18.30;99.90;;;;;;4990498;28;20101;-81
2022/09/19 11:42:47;;;;;;;10.55;1.38;;;18.10;99.90;;;;;;4981541;28;20067;-80
2022/09/19 11:45:19;;;;;;;8.70;1.48;;;18.00;99.90;;;;;;4990883;28;20129;-82
2022/09/19 11:48:05;;;;;;;15.18;2.22;;;17.90;99.90;;;;;;4990532;28;20461;-83
2022/09/19 11:50:59;;;;;;;9.77;1.60;;;18.10;99.90;;;;;;4990750;28;20932;-75
2022/09/19 11:53:33;;;;;;;15.02;1.75;;;18.20;99.90;;;;;;4990294;28;20065;-77
2022/09/19 11:56:13;;;;;;;11.88;1.95;;;18.00;99.90;;;;;;4990715;28;20061;-79
2022/09/19 11:58:51;;;;;;;9.68;2.00;;;17.70;99.90;;;;;;4990876;28;20046;-77
2022/09/19 12:01:40;;;;;;;17.23;2.03;;;17.90;99.90;;;;;;4994887;28;20096;-87
2022/09/19 12:04:32;;;;;;;12.95;2.15;;;18.10;99.90;;;;;;5012791;28;20136;-78
2022/09/19 12:07:44;;;;;;;15.48;2.45;;;18.10;99.90;;;;;;5012524;28;20064;-84
2022/09/19 12:10:10;;;;;;;15.10;2.15;;;17.80;99.90;;;;;;4989475;28;20042;-80
2022/09/19 12:12:39;;;;;;;20.05;2.60;;;18.00;99.90;;;;;;4958184;28;20375;-77
2022/09/19 12:15:22;;;;;;;13.23;1.95;;;18.00;99.90;;;;;;4974327;28;20406;-77
2022/09/19 12:18:08;;;;;;;13.55;1.73;;;18.20;99.90;;;;;;4990638;28;20146;-77
2022/09/19 12:20:47;;;;;;;15.88;2.33;;;18.40;99.90;;;;;;4990125;28;20394;-82
2022/09/19 12:26:22;;;;;;;15.48;2.17;;;18.70;99.90;;;;;;4990593;28;20054;-87
2022/09/19 12:29:06;;;;;;;13.13;2.15;;;18.20;99.90;;;;;;4990408;28;20054;-81
2022/09/19 12:31:36;;;;;;;13.70;2.03;;;18.30;99.90;;;;;;4990357;28;20065;-77
2022/09/19 12:34:14;;;;;;;16.38;2.55;;;18.40;99.90;;;;;;4990499;28;20141;-78
2022/09/19 12:36:54;;;;;;;12.73;2.38;;;18.70;99.90;;;;;;4990520;28;20131;-79
2022/09/19 12:39:23;;;;;;;14.27;2.22;;;18.80;99.90;;;;;;4990258;28;20445;-77
2022/09/19 12:42:03;;;;;;;13.40;1.60;;;19.00;99.90;;;;;;5010158;28;20053;-77
2022/09/19 12:44:42;;;;;;;11.75;1.88;;;18.80;99.90;;;;;;5010491;28;20529;-76
2022/09/19 12:47:24;;;;;;;15.93;1.88;;;18.80;99.90;;;;;;5011869;28;20502;-82
2022/09/19 12:50:15;;;;;;;12.32;1.50;;;18.60;99.90;;;;;;5011624;28;20046;-84
2022/09/19 12:52:48;;;;;;;13.52;1.60;;;18.40;99.90;;;;;;5012110;28;20038;-88
2022/09/19 12:55:16;;;;;;;10.18;2.08;;;18.10;99.90;;;;;;5011351;28;20054;-81
2022/09/19 12:57:50;;;;;;;14.60;2.55;;;18.00;99.90;;;;;;5011900;28;20125;-78
2022/09/19 13:00:18;;;;;;;19.85;2.63;;;17.60;99.90;;;;;;5011899;28;20046;-91
2022/09/19 13:03:15;;;;;;;18.92;2.17;;;17.40;99.90;;;;;;5010380;28;20497;-79
2022/09/19 13:06:14;;;;;;;13.38;3.38;;;17.10;99.90;;;;;;5010629;28;20049;-76
2022/09/19 13:09:07;;;;;;;12.70;1.95;;;16.90;99.90;;;;;;5012011;28;20038;-80
2022/09/19 13:11:45;;;;;;;9.57;2.10;;;16.60;99.90;;;;;;5026600;28;20519;-77
2022/09/19 13:14:14;;;;;;;9.73;1.60;;;16.80;99.90;;;;;;5012481;28;20096;-84
2022/09/19 13:23:30;;;;;;;8.40;1.65;;;16.90;99.90;;;;;;5010484;28;20087;-82
2022/09/19 13:25:07;;;;;;;9.75;1.52;;;17.00;99.90;;;;;;5011803;28;20108;-78
2022/09/19 13:27:34;;;;;;;12.02;1.73;;;16.80;99.90;;;;;;5011685;28;20046;-78
2022/09/19 13:30:01;;;;;;;11.40;1.70;;;16.70;99.90;;;;;;5011701;28;20409;-82
2022/09/19 13:32:52;;;;;;;12.65;1.48;;;16.60;99.90;;;;;;5011397;28;20053;-83
2022/09/19 13:35:22;;;;;;;12.55;1.85;;;16.90;99.90;;;;;;5010366;28;20136;-78